Sumidouro, Brazil
Current Conditions -  °F | °C
As of 9:00 PM on Wednesday 26 Nov 2014 (Local Time) from SBME Reporting Station
Broken Clouds Broken Clouds  
Wind Chill: 81°   Ceiling: 8000
Heat Index: 85°   Visibility: 6mi
Dew Point: 73°   Wind: 12mph
Humidity: 79%   Direction: 40°NE
Pressure: 29.77"   Gusts: NA
Location:  22.05°S, 42.67°W
Report Text: SBME 262300Z 04010KT 9999 SCT020 BKN080 27/23 Q1008
Loading
Personal Weather Stations






























Interactive Weather Map New forecast layout! Learn more

10-Day Weather Forecast

Advertisements
Track Severe Weather on mobile